Time;durP1;ratioP1;P1;durP2;ratioP2;P2;SDS_P1;SDS_P2;PMS_P1;PMS_P2;Temp;Humidity;BMP_temperature;BMP_pressure;BME280_temperature;BME280_humidity;BME280_pressure;Samples;Min_cycle;Max_cycle;Signal;HPM_P1;HPM_P2
2022/05/17 00:01:40;;;;;;;10.55;3.88;;;;;;;;;;5013108;28;20022;-57
2022/05/17 00:04:07;;;;;;;12.05;4.57;;;;;;;;;;5012670;28;20037;-57
2022/05/17 00:06:34;;;;;;;13.95;4.38;;;;;;;;;;4994246;28;20030;-56
2022/05/17 00:09:01;;;;;;;14.10;3.78;;;;;;;;;;5012689;28;20388;-52
2022/05/17 00:11:28;;;;;;;14.07;4.43;;;;;;;;;;5011760;28;20040;-54
2022/05/17 00:13:56;;;;;;;15.90;4.43;;;;;;;;;;5011801;28;20479;-52
2022/05/17 00:16:23;;;;;;;12.73;4.10;;;;;;;;;;5011823;28;20428;-57
2022/05/17 00:18:50;;;;;;;13.48;4.25;;;;;;;;;;5012828;28;20033;-56
2022/05/17 00:21:17;;;;;;;11.45;3.83;;;;;;;;;;5011681;28;20030;-55
2022/05/17 00:23:45;;;;;;;13.80;4.32;;;;;;;;;;5012048;28;20018;-52
2022/05/17 00:26:12;;;;;;;14.27;4.38;;;;;;;;;;5012913;28;20030;-52
2022/05/17 00:28:39;;;;;;;14.48;4.13;;;;;;;;;;5015965;28;20037;-52
2022/05/17 00:31:07;;;;;;;8.25;3.83;;;;;;;;;;5016554;28;20604;-52
2022/05/17 00:33:34;;;;;;;11.25;4.60;;;;;;;;;;5022431;28;20503;-53
2022/05/17 00:36:01;;;;;;;13.65;3.63;;;;;;;;;;5031561;28;20053;-54
2022/05/17 00:38:28;;;;;;;9.98;4.00;;;;;;;;;;5032626;28;20079;-55
2022/05/17 00:40:55;;;;;;;10.40;3.70;;;;;;;;;;5031697;28;20037;-52
2022/05/17 00:46:20;;;;;;;13.10;3.90;;;;;;;;;;5032025;28;20119;-48
2022/05/17 00:48:47;;;;;;;11.50;3.67;;;;;;;;;;5032948;28;20038;-50
2022/05/17 00:51:14;;;;;;;13.30;3.83;;;;;;;;;;5032929;28;20025;-51
2022/05/17 00:53:41;;;;;;;11.55;3.83;;;;;;;;;;5032959;28;20053;-56
2022/05/17 00:56:11;;;;;;;10.88;3.80;;;;;;;;;;5031910;28;20498;-54
2022/05/17 00:58:49;;;;;;;11.18;3.38;;;;;;;;;;5031668;28;20574;-53
2022/05/17 01:01:34;;;;;;;8.05;3.35;;;;;;;;;;5031470;28;20045;-54
2022/05/17 01:04:07;;;;;;;9.18;3.60;;;;;;;;;;5031362;28;20475;-55
2022/05/17 01:06:50;;;;;;;8.30;3.55;;;;;;;;;;5031412;28;20030;-54
2022/05/17 01:09:17;;;;;;;15.63;5.05;;;;;;;;;;5030911;28;20112;-55
2022/05/17 01:11:44;;;;;;;13.35;4.78;;;;;;;;;;5013593;28;20399;-54
2022/05/17 01:16:58;;;;;;;19.58;5.43;;;;;;;;;;5031308;28;20121;-54
2022/05/17 01:19:25;;;;;;;14.68;5.60;;;;;;;;;;5031467;28;20076;-55
2022/05/17 01:21:52;;;;;;;16.83;5.68;;;;;;;;;;5012858;28;20026;-51
2022/05/17 01:24:19;;;;;;;16.67;6.10;;;;;;;;;;5031394;28;20028;-55
2022/05/17 01:26:49;;;;;;;16.20;6.22;;;;;;;;;;5030293;28;20087;-54
2022/05/17 01:29:16;;;;;;;15.65;6.80;;;;;;;;;;5030365;28;20033;-56
2022/05/17 01:31:44;;;;;;;22.00;7.43;;;;;;;;;;5013254;28;20068;-52
2022/05/17 01:34:12;;;;;;;24.88;7.35;;;;;;;;;;5030318;28;20072;-53
2022/05/17 01:36:40;;;;;;;20.75;7.50;;;;;;;;;;5031317;28;20036;-53
2022/05/17 01:39:07;;;;;;;23.38;7.32;;;;;;;;;;5030541;28;20032;-56
2022/05/17 01:41:34;;;;;;;18.02;6.80;;;;;;;;;;5030274;28;20141;-56
2022/05/17 01:44:01;;;;;;;24.40;7.55;;;;;;;;;;5031178;28;20107;-57
2022/05/17 01:46:29;;;;;;;17.15;6.43;;;;;;;;;;5030693;28;20025;-53
2022/05/17 01:48:56;;;;;;;17.98;6.28;;;;;;;;;;5030867;28;20052;-49
2022/05/17 01:51:24;;;;;;;14.80;6.00;;;;;;;;;;5030213;28;20032;-53
2022/05/17 01:53:50;;;;;;;17.30;5.88;;;;;;;;;;5030252;28;20036;-53
2022/05/17 01:56:17;;;;;;;14.93;5.85;;;;;;;;;;5030290;28;20033;-55
2022/05/17 01:58:44;;;;;;;13.57;5.75;;;;;;;;;;5030630;28;20398;-57
2022/05/17 02:01:12;;;;;;;16.25;5.95;;;;;;;;;;5029819;28;20553;-58
2022/05/17 02:03:40;;;;;;;21.23;5.82;;;;;;;;;;5030466;28;20083;-57
2022/05/17 02:06:07;;;;;;;18.30;5.68;;;;;;;;;;5030337;28;20047;-56
2022/05/17 02:08:35;;;;;;;14.48;4.97;;;;;;;;;;5030059;28;20068;-57
2022/05/17 02:11:03;;;;;;;21.63;6.50;;;;;;;;;;5030160;28;20031;-52
2022/05/17 02:13:30;;;;;;;18.38;5.93;;;;;;;;;;5029896;28;20483;-56
2022/05/17 02:15:58;;;;;;;17.48;5.18;;;;;;;;;;5030129;28;20025;-56
2022/05/17 02:18:25;;;;;;;24.08;5.85;;;;;;;;;;5030564;28;20490;-52
2022/05/17 02:20:52;;;;;;;18.15;5.43;;;;;;;;;;5030195;28;20383;-54
2022/05/17 02:23:19;;;;;;;18.33;5.30;;;;;;;;;;5030189;28;20436;-57
2022/05/17 02:25:46;;;;;;;21.45;5.90;;;;;;;;;;5030246;28;20060;-55
2022/05/17 02:28:13;;;;;;;17.67;5.28;;;;;;;;;;5030180;28;20018;-52
2022/05/17 02:30:41;;;;;;;16.85;5.25;;;;;;;;;;5030653;28;20030;-49
2022/05/17 02:33:08;;;;;;;17.13;5.13;;;;;;;;;;5030619;28;20053;-50
2022/05/17 02:35:36;;;;;;;13.52;4.68;;;;;;;;;;5026529;28;20128;-52
2022/05/17 02:38:03;;;;;;;16.58;4.97;;;;;;;;;;5017490;28;20061;-52
2022/05/17 02:40:30;;;;;;;17.95;4.65;;;;;;;;;;5013639;28;20038;-52
2022/05/17 02:42:57;;;;;;;22.88;5.07;;;;;;;;;;5013964;28;20018;-50
2022/05/17 02:45:24;;;;;;;18.23;4.30;;;;;;;;;;5004816;28;20476;-52
2022/05/17 02:47:52;;;;;;;23.77;5.13;;;;;;;;;;5029175;28;20583;-52
2022/05/17 02:50:20;;;;;;;22.35;4.90;;;;;;;;;;5013675;28;20042;-50
2022/05/17 02:52:47;;;;;;;24.83;5.28;;;;;;;;;;5020379;28;20133;-52
2022/05/17 02:55:14;;;;;;;20.98;6.15;;;;;;;;;;5022835;28;20067;-50
2022/05/17 02:57:41;;;;;;;23.42;5.25;;;;;;;;;;5024664;28;20136;-50
2022/05/17 03:00:10;;;;;;;14.43;4.82;;;;;;;;;;5022554;28;20037;-56
2022/05/17 03:02:37;;;;;;;20.48;4.50;;;;;;;;;;5007301;28;20117;-55
2022/05/17 03:05:05;;;;;;;20.58;4.88;;;;;;;;;;5005026;28;20141;-55
2022/05/17 03:07:32;;;;;;;16.60;4.18;;;;;;;;;;5024953;28;20057;-56
2022/05/17 03:09:59;;;;;;;16.70;4.25;;;;;;;;;;5022269;28;20041;-54
2022/05/17 03:12:26;;;;;;;18.17;4.65;;;;;;;;;;5019176;28;20032;-50
2022/05/17 03:14:53;;;;;;;18.80;4.70;;;;;;;;;;5028541;28;20579;-54
2022/05/17 03:17:20;;;;;;;14.05;4.13;;;;;;;;;;5034254;28;20029;-53
2022/05/17 03:19:48;;;;;;;17.77;4.75;;;;;;;;;;5033817;28;20036;-49
2022/05/17 03:22:15;;;;;;;15.02;4.07;;;;;;;;;;5018398;28;20048;-49
2022/05/17 03:24:42;;;;;;;15.90;4.70;;;;;;;;;;5021124;28;20470;-57
2022/05/17 03:27:10;;;;;;;12.40;4.05;;;;;;;;;;5021734;28;20123;-54
2022/05/17 03:29:37;;;;;;;12.73;3.88;;;;;;;;;;5022705;28;20037;-56
2022/05/17 03:32:04;;;;;;;14.00;4.28;;;;;;;;;;5023320;28;21729;-54
2022/05/17 03:34:32;;;;;;;10.27;3.63;;;;;;;;;;5021682;28;20021;-58
2022/05/17 03:36:59;;;;;;;14.27;3.80;;;;;;;;;;5022530;28;20036;-55
2022/05/17 03:39:26;;;;;;;11.15;3.83;;;;;;;;;;5023923;28;20395;-57
2022/05/17 03:41:53;;;;;;;14.27;4.05;;;;;;;;;;5021896;28;20032;-56
2022/05/17 03:44:20;;;;;;;16.23;3.75;;;;;;;;;;5022234;28;20041;-48
2022/05/17 03:46:49;;;;;;;15.15;3.60;;;;;;;;;;5015996;28;20058;-55
2022/05/17 03:49:16;;;;;;;14.30;3.90;;;;;;;;;;5013357;28;20030;-55
2022/05/17 03:51:47;;;;;;;9.80;3.47;;;;;;;;;;5013363;28;20040;-56
2022/05/17 03:54:18;;;;;;;11.50;3.60;;;;;;;;;;5013309;28;20038;-57
2022/05/17 03:56:47;;;;;;;10.13;3.50;;;;;;;;;;5014429;28;20061;-55
2022/05/17 03:59:14;;;;;;;8.85;3.53;;;;;;;;;;5013106;28;20030;-57
2022/05/17 04:01:41;;;;;;;8.43;2.95;;;;;;;;;;5013840;28;20030;-56
2022/05/17 04:04:08;;;;;;;8.70;3.30;;;;;;;;;;4996429;28;20025;-52
2022/05/17 04:06:35;;;;;;;8.55;3.17;;;;;;;;;;5013949;28;20498;-55
2022/05/17 04:09:02;;;;;;;8.25;2.88;;;;;;;;;;5013325;28;20402;-58
2022/05/17 04:11:29;;;;;;;9.52;2.88;;;;;;;;;;5013063;28;20037;-56
2022/05/17 04:13:56;;;;;;;10.73;3.10;;;;;;;;;;5012689;28;20136;-55
2022/05/17 04:16:23;;;;;;;8.05;3.10;;;;;;;;;;5012501;28;20104;-56
2022/05/17 04:18:50;;;;;;;10.27;3.78;;;;;;;;;;5013635;28;20026;-55
2022/05/17 04:21:17;;;;;;;13.85;3.25;;;;;;;;;;5012850;28;20071;-57
2022/05/17 04:23:44;;;;;;;8.38;3.28;;;;;;;;;;5013956;28;20138;-57
2022/05/17 04:26:14;;;;;;;8.63;3.08;;;;;;;;;;5013456;28;20034;-58
2022/05/17 04:28:41;;;;;;;6.60;2.50;;;;;;;;;;5013287;28;20030;-57
2022/05/17 04:31:08;;;;;;;6.40;2.90;;;;;;;;;;5012786;28;20033;-58
2022/05/17 04:33:35;;;;;;;8.35;2.78;;;;;;;;;;5013041;28;20116;-58
2022/05/17 04:36:02;;;;;;;10.75;2.83;;;;;;;;;;5013572;28;20179;-57
2022/05/17 04:38:29;;;;;;;7.22;2.72;;;;;;;;;;5013062;28;20026;-56
2022/05/17 04:40:56;;;;;;;5.45;2.60;;;;;;;;;;5012893;28;20030;-56
2022/05/17 04:43:23;;;;;;;8.43;2.20;;;;;;;;;;5013117;28;20046;-57
2022/05/17 04:45:51;;;;;;;5.78;2.35;;;;;;;;;;5012942;28;20036;-57
2022/05/17 04:48:18;;;;;;;8.75;2.55;;;;;;;;;;5013058;28;20045;-56
2022/05/17 04:50:45;;;;;;;7.63;2.65;;;;;;;;;;5012632;28;20032;-57
2022/05/17 04:53:12;;;;;;;8.55;2.83;;;;;;;;;;4995194;28;20111;-57
2022/05/17 04:55:39;;;;;;;7.45;2.90;;;;;;;;;;5013034;28;20034;-58
2022/05/17 04:58:06;;;;;;;6.70;2.20;;;;;;;;;;5012650;28;20029;-58
2022/05/17 05:00:33;;;;;;;6.53;2.20;;;;;;;;;;5012387;28;20030;-59
2022/05/17 05:03:00;;;;;;;7.22;2.42;;;;;;;;;;5012706;28;20022;-56
2022/05/17 05:05:27;;;;;;;6.22;2.40;;;;;;;;;;5012429;28;20030;-57
2022/05/17 05:07:54;;;;;;;5.22;1.80;;;;;;;;;;5013015;28;20041;-54
2022/05/17 05:10:21;;;;;;;3.67;1.85;;;;;;;;;;5012447;28;20049;-59
2022/05/17 05:12:48;;;;;;;5.90;2.10;;;;;;;;;;5013077;28;20040;-57
2022/05/17 05:15:15;;;;;;;5.10;1.83;;;;;;;;;;5012143;28;20026;-57
2022/05/17 05:17:42;;;;;;;6.50;2.03;;;;;;;;;;5012497;28;20114;-57
2022/05/17 05:20:11;;;;;;;3.88;1.80;;;;;;;;;;5012148;28;20033;-58
2022/05/17 05:22:39;;;;;;;6.78;2.20;;;;;;;;;;5012808;28;20036;-57
2022/05/17 05:25:06;;;;;;;4.35;1.90;;;;;;;;;;5011977;28;20415;-58
2022/05/17 05:27:34;;;;;;;7.10;2.13;;;;;;;;;;5012708;28;20122;-57
2022/05/17 05:30:01;;;;;;;7.15;2.13;;;;;;;;;;5011990;28;20037;-58
2022/05/17 05:32:28;;;;;;;4.53;2.00;;;;;;;;;;5011931;28;20054;-57
2022/05/17 05:34:55;;;;;;;5.03;1.70;;;;;;;;;;5012184;28;20030;-55
2022/05/17 05:37:22;;;;;;;5.90;1.73;;;;;;;;;;5012319;28;20503;-56
2022/05/17 05:39:49;;;;;;;4.20;2.08;;;;;;;;;;5011806;28;20113;-57
2022/05/17 05:42:16;;;;;;;5.95;1.80;;;;;;;;;;5012378;28;20476;-54
2022/05/17 05:44:43;;;;;;;4.90;1.88;;;;;;;;;;5011768;28;20454;-58
2022/05/17 05:47:10;;;;;;;6.28;1.92;;;;;;;;;;5012316;28;20392;-56
2022/05/17 05:49:37;;;;;;;2.92;1.50;;;;;;;;;;5012268;28;20195;-58
2022/05/17 05:52:04;;;;;;;3.60;1.80;;;;;;;;;;5011723;28;20488;-57
2022/05/17 05:54:31;;;;;;;4.22;1.83;;;;;;;;;;5012494;28;20498;-58
2022/05/17 05:57:01;;;;;;;4.82;1.58;;;;;;;;;;5011938;28;20037;-58
2022/05/17 05:59:31;;;;;;;4.50;1.73;;;;;;;;;;5012038;28;20038;-55
2022/05/17 06:01:58;;;;;;;4.60;1.60;;;;;;;;;;5012369;28;20483;-58
2022/05/17 06:04:27;;;;;;;3.35;1.60;;;;;;;;;;5011405;28;20700;-57
2022/05/17 06:06:56;;;;;;;4.20;1.42;;;;;;;;;;5012152;28;20064;-58
2022/05/17 06:09:24;;;;;;;3.80;1.40;;;;;;;;;;5011572;28;20492;-58
2022/05/17 06:11:51;;;;;;;5.93;1.75;;;;;;;;;;5013407;28;20104;-58
2022/05/17 06:14:20;;;;;;;3.33;1.83;;;;;;;;;;5015503;28;20029;-58
2022/05/17 06:16:47;;;;;;;3.95;1.63;;;;;;;;;;5015732;28;20117;-57
2022/05/17 06:19:14;;;;;;;4.07;1.50;;;;;;;;;;5016171;28;20038;-57
2022/05/17 06:21:41;;;;;;;4.53;1.70;;;;;;;;;;5015158;28;20109;-57
2022/05/17 06:24:08;;;;;;;4.13;1.60;;;;;;;;;;5016234;28;20522;-56
2022/05/17 06:26:36;;;;;;;4.50;1.65;;;;;;;;;;5015623;28;20109;-58
2022/05/17 06:29:04;;;;;;;3.92;1.85;;;;;;;;;;5015460;28;20056;-56
2022/05/17 06:31:31;;;;;;;2.75;1.67;;;;;;;;;;5015854;28;20026;-58
2022/05/17 06:33:58;;;;;;;4.10;1.75;;;;;;;;;;5015670;28;20093;-56
2022/05/17 06:36:25;;;;;;;3.30;1.40;;;;;;;;;;5015625;28;20038;-58
2022/05/17 06:38:52;;;;;;;4.80;1.48;;;;;;;;;;5015200;28;20377;-53
2022/05/17 06:41:18;;;;;;;2.63;1.13;;;;;;;;;;5015533;28;20030;-57
2022/05/17 06:43:45;;;;;;;1.80;1.30;;;;;;;;;;5015694;28;20072;-57
2022/05/17 06:46:12;;;;;;;2.30;0.90;;;;;;;;;;5015323;28;20026;-57
2022/05/17 06:48:39;;;;;;;3.15;1.45;;;;;;;;;;5014630;28;20108;-55
2022/05/17 06:51:07;;;;;;;2.25;0.90;;;;;;;;;;5015452;28;20030;-56
2022/05/17 06:53:35;;;;;;;3.67;1.10;;;;;;;;;;5015024;28;20120;-56
2022/05/17 06:56:05;;;;;;;2.75;1.13;;;;;;;;;;5015186;28;20073;-58
2022/05/17 06:58:32;;;;;;;3.50;1.52;;;;;;;;;;5014494;28;20030;-58
2022/05/17 07:00:59;;;;;;;3.00;1.50;;;;;;;;;;5015187;28;20108;-57
2022/05/17 07:03:26;;;;;;;3.38;1.17;;;;;;;;;;5014849;28;20034;-55
2022/05/17 07:05:53;;;;;;;3.38;1.33;;;;;;;;;;5015478;28;20029;-57
2022/05/17 07:08:20;;;;;;;2.85;1.17;;;;;;;;;;5014775;28;20551;-58
2022/05/17 07:13:32;;;;;;;3.90;1.30;;;;;;;;;;5027994;28;20048;-51
2022/05/17 07:15:59;;;;;;;4.00;1.20;;;;;;;;;;5034458;28;20132;-56
2022/05/17 07:18:29;;;;;;;2.40;1.00;;;;;;;;;;5034078;28;20029;-56
2022/05/17 07:20:58;;;;;;;3.13;1.25;;;;;;;;;;5034617;28;20149;-51
2022/05/17 07:23:26;;;;;;;2.72;1.13;;;;;;;;;;5033203;28;20395;-55
2022/05/17 07:25:54;;;;;;;3.45;1.40;;;;;;;;;;5033965;28;20044;-56
2022/05/17 07:28:22;;;;;;;1.92;1.23;;;;;;;;;;5034131;28;20033;-54
2022/05/17 07:30:49;;;;;;;3.30;1.33;;;;;;;;;;5033793;28;20051;-50
2022/05/17 07:33:17;;;;;;;2.58;1.45;;;;;;;;;;5034575;28;20487;-56
2022/05/17 07:35:44;;;;;;;3.55;1.63;;;;;;;;;;5033663;28;20121;-56
2022/05/17 07:38:11;;;;;;;2.78;1.10;;;;;;;;;;5034384;28;20112;-57
2022/05/17 07:40:38;;;;;;;2.60;1.15;;;;;;;;;;5034101;28;20705;-58
2022/05/17 07:43:06;;;;;;;2.47;1.10;;;;;;;;;;5034139;28;20432;-56
2022/05/17 07:45:33;;;;;;;2.38;0.88;;;;;;;;;;5034476;28;20033;-57
2022/05/17 07:48:02;;;;;;;2.88;1.20;;;;;;;;;;5034003;28;20107;-57
2022/05/17 07:50:29;;;;;;;2.63;1.33;;;;;;;;;;5033615;28;20041;-57
2022/05/17 07:52:55;;;;;;;3.15;1.08;;;;;;;;;;5033459;28;20033;-56
2022/05/17 07:55:22;;;;;;;2.08;1.10;;;;;;;;;;5033962;28;20034;-55
2022/05/17 07:57:49;;;;;;;2.83;1.30;;;;;;;;;;5033681;28;20104;-57
2022/05/17 08:00:16;;;;;;;2.33;0.93;;;;;;;;;;5033521;28;20061;-55
2022/05/17 08:02:43;;;;;;;3.08;1.08;;;;;;;;;;5033895;28;20037;-56
2022/05/17 08:05:10;;;;;;;2.95;0.90;;;;;;;;;;5033612;28;20485;-56
2022/05/17 08:07:38;;;;;;;1.80;0.95;;;;;;;;;;5033172;28;20021;-58
2022/05/17 08:10:05;;;;;;;3.25;0.80;;;;;;;;;;5033285;28;20038;-56
2022/05/17 08:12:32;;;;;;;2.70;1.02;;;;;;;;;;5033509;28;20087;-55
2022/05/17 08:14:59;;;;;;;1.67;0.80;;;;;;;;;;5033158;28;20099;-57
2022/05/17 08:17:26;;;;;;;3.03;1.00;;;;;;;;;;5033704;28;20026;-56
2022/05/17 08:19:53;;;;;;;2.38;1.20;;;;;;;;;;5033545;28;20033;-54
2022/05/17 08:22:20;;;;;;;1.85;0.93;;;;;;;;;;5033200;28;20037;-57
2022/05/17 08:27:32;;;;;;;2.33;1.10;;;;;;;;;;5033384;28;20511;-55
2022/05/17 08:30:00;;;;;;;2.40;1.40;;;;;;;;;;5032888;28;20041;-54
2022/05/17 08:35:30;;;;;;;2.28;1.25;;;;;;;;;;5032907;28;20442;-56
2022/05/17 08:37:57;;;;;;;3.65;1.20;;;;;;;;;;5033285;28;20515;-56
2022/05/17 08:40:24;;;;;;;1.98;0.88;;;;;;;;;;5032583;28;20402;-56
2022/05/17 08:42:51;;;;;;;2.28;0.95;;;;;;;;;;5033030;28;20026;-56
2022/05/17 08:45:23;;;;;;;1.45;0.82;;;;;;;;;;5032810;28;20021;-54
2022/05/17 08:47:54;;;;;;;1.53;0.93;;;;;;;;;;5033272;28;20083;-52
2022/05/17 08:50:24;;;;;;;1.40;0.82;;;;;;;;;;5032424;28;20792;-54
2022/05/17 08:52:54;;;;;;;2.50;0.93;;;;;;;;;;5032007;28;20126;-56
2022/05/17 08:55:36;;;;;;;1.33;0.98;;;;;;;;;;5032231;28;20445;-54
2022/05/17 08:58:26;;;;;;;1.88;1.17;;;;;;;;;;5032462;28;20038;-54
2022/05/17 09:00:55;;;;;;;1.33;0.60;;;;;;;;;;5022409;28;20045;-56
2022/05/17 09:03:27;;;;;;;2.75;1.10;;;;;;;;;;5031702;28;20037;-56
2022/05/17 09:05:55;;;;;;;;;;;;;;;;;;5032899;28;20033;-56
2022/05/17 09:08:23;;;;;;;1.92;1.20;;;;;;;;;;5032283;28;20379;-53
2022/05/17 09:10:53;;;;;;;2.72;1.23;;;;;;;;;;5013820;28;20120;-50
2022/05/17 09:13:26;;;;;;;1.42;1.00;;;;;;;;;;5031800;28;20040;-53
2022/05/17 09:15:56;;;;;;;5.40;1.10;;;;;;;;;;5032354;28;20083;-55
2022/05/17 09:18:23;;;;;;;3.33;1.10;;;;;;;;;;5032243;28;20487;-49
2022/05/17 09:20:51;;;;;;;2.20;0.80;;;;;;;;;;5032357;28;20364;-52
2022/05/17 09:23:18;;;;;;;2.88;1.00;;;;;;;;;;5032188;28;20030;-51
2022/05/17 09:25:50;;;;;;;2.33;0.90;;;;;;;;;;5031697;28;20501;-50
2022/05/17 09:28:21;;;;;;;1.23;0.82;;;;;;;;;;5031997;28;20136;-58
2022/05/17 09:30:49;;;;;;;2.80;1.27;;;;;;;;;;5032056;28;20472;-56
2022/05/17 09:33:20;;;;;;;1.98;0.90;;;;;;;;;;5031240;28;20060;-56
2022/05/17 09:35:57;;;;;;;1.50;0.85;;;;;;;;;;5032560;28;20032;-53
2022/05/17 09:38:25;;;;;;;2.42;0.90;;;;;;;;;;5031778;28;20025;-56
2022/05/17 09:40:54;;;;;;;1.23;0.85;;;;;;;;;;5031882;28;20025;-57
2022/05/17 09:43:41;;;;;;;4.47;1.33;;;;;;;;;;5032221;28;20043;-54
2022/05/17 09:46:11;;;;;;;2.10;1.00;;;;;;;;;;5030581;28;20030;-54
2022/05/17 09:54:33;;;;;;;3.45;1.10;;;;;;;;;;5032747;28;20090;-57
2022/05/17 09:57:32;;;;;;;2.28;0.90;;;;;;;;;;5031528;28;20025;-55
2022/05/17 10:00:13;;;;;;;4.72;1.08;;;;;;;;;;5016535;28;20561;-54
2022/05/17 10:02:42;;;;;;;3.08;0.80;;;;;;;;;;5031538;28;20029;-56
2022/05/17 10:05:24;;;;;;;2.03;1.02;;;;;;;;;;5031649;28;20029;-56
2022/05/17 10:07:53;;;;;;;5.32;1.15;;;;;;;;;;5031879;28;20032;-55
2022/05/17 10:10:26;;;;;;;5.30;1.20;;;;;;;;;;5031066;28;20510;-57
2022/05/17 10:12:56;;;;;;;4.07;1.17;;;;;;;;;;5031296;28;20036;-56
2022/05/17 10:15:23;;;;;;;1.90;1.05;;;;;;;;;;5031819;28;20067;-56
2022/05/17 10:17:55;;;;;;;1.65;0.85;;;;;;;;;;5031470;28;20033;-57
2022/05/17 10:20:26;;;;;;;4.80;0.98;;;;;;;;;;5031565;28;20026;-56
2022/05/17 10:23:00;;;;;;;2.63;1.00;;;;;;;;;;5031437;28;20116;-56
2022/05/17 10:25:32;;;;;;;2.60;1.00;;;;;;;;;;5013779;28;20424;-53
2022/05/17 10:28:13;;;;;;;3.75;0.93;;;;;;;;;;5031310;28;20030;-56
2022/05/17 10:30:48;;;;;;;5.55;0.90;;;;;;;;;;5030527;28;20462;-55
2022/05/17 10:33:18;;;;;;;3.95;0.75;;;;;;;;;;5007195;28;20096;-55
2022/05/17 10:35:50;;;;;;;1.15;0.55;;;;;;;;;;5000024;28;20030;-58
2022/05/17 10:38:22;;;;;;;4.65;1.20;;;;;;;;;;5020541;28;20034;-56
2022/05/17 10:40:50;;;;;;;5.95;1.10;;;;;;;;;;5023866;28;20508;-53
2022/05/17 10:43:23;;;;;;;7.28;1.10;;;;;;;;;;5030637;28;20037;-56
2022/05/17 10:46:13;;;;;;;3.95;1.25;;;;;;;;;;5030577;28;20033;-55
2022/05/17 10:49:03;;;;;;;6.22;1.25;;;;;;;;;;5020317;28;20061;-58
2022/05/17 10:51:38;;;;;;;5.10;1.42;;;;;;;;;;4992997;28;20053;-58
2022/05/17 10:54:27;;;;;;;6.82;1.50;;;;;;;;;;5030176;28;20033;-58
2022/05/17 10:57:07;;;;;;;7.07;1.67;;;;;;;;;;5030661;28;20045;-57
2022/05/17 10:59:38;;;;;;;5.97;1.58;;;;;;;;;;5034583;28;20037;-58
2022/05/17 11:02:12;;;;;;;8.93;1.60;;;;;;;;;;5033563;28;20025;-55
2022/05/17 11:04:57;;;;;;;5.60;1.48;;;;;;;;;;5023338;28;20041;-54
2022/05/17 11:07:36;;;;;;;5.05;1.27;;;;;;;;;;5022282;28;20030;-53
2022/05/17 11:10:09;;;;;;;5.43;1.48;;;;;;;;;;5019977;28;20463;-58
2022/05/17 11:12:41;;;;;;;9.43;1.50;;;;;;;;;;5033588;28;20472;-55
2022/05/17 11:15:17;;;;;;;8.93;1.85;;;;;;;;;;5015718;28;20040;-53
2022/05/17 11:17:56;;;;;;;6.43;1.25;;;;;;;;;;5033983;28;20022;-52
2022/05/17 11:20:23;;;;;;;9.45;1.17;;;;;;;;;;5033605;28;20053;-55
2022/05/17 11:22:50;;;;;;;8.70;1.40;;;;;;;;;;5034234;28;20026;-57
2022/05/17 11:25:36;;;;;;;6.47;1.30;;;;;;;;;;5032954;28;20032;-55
2022/05/17 11:28:03;;;;;;;4.38;1.08;;;;;;;;;;5034089;28;20084;-57
2022/05/17 11:30:50;;;;;;;5.75;1.05;;;;;;;;;;5034438;28;20145;-57
2022/05/17 11:33:23;;;;;;;7.20;1.63;;;;;;;;;;5033912;28;20080;-55
2022/05/17 11:36:08;;;;;;;5.10;1.10;;;;;;;;;;5034142;28;20112;-55
2022/05/17 11:38:37;;;;;;;10.80;1.73;;;;;;;;;;5033752;28;20487;-58
2022/05/17 11:41:25;;;;;;;6.90;1.20;;;;;;;;;;5034405;28;20038;-56
2022/05/17 11:43:55;;;;;;;6.38;1.13;;;;;;;;;;5033969;28;20412;-55
2022/05/17 11:46:25;;;;;;;9.63;1.13;;;;;;;;;;5033916;28;20133;-56
2022/05/17 11:48:58;;;;;;;3.50;1.08;;;;;;;;;;5033594;28;20025;-56
2022/05/17 11:51:29;;;;;;;6.50;1.33;;;;;;;;;;5034433;28;20100;-57
2022/05/17 11:53:56;;;;;;;6.30;1.13;;;;;;;;;;5033970;28;20107;-53
2022/05/17 11:56:32;;;;;;;4.80;1.25;;;;;;;;;;5033821;28;20029;-55
2022/05/17 11:59:14;;;;;;;5.72;1.40;;;;;;;;;;5033817;28;20064;-56
2022/05/17 12:01:41;;;;;;;4.68;1.10;;;;;;;;;;5033743;28;20017;-54
2022/05/17 12:04:28;;;;;;;5.95;1.20;;;;;;;;;;5033616;28;20025;-55
2022/05/17 12:06:55;;;;;;;12.73;1.30;;;;;;;;;;5033799;28;20038;-55
2022/05/17 12:09:22;;;;;;;8.23;1.70;;;;;;;;;;5032346;28;20511;-55
2022/05/17 12:11:58;;;;;;;7.95;1.25;;;;;;;;;;5034182;28;20108;-56
2022/05/17 12:14:48;;;;;;;3.35;0.95;;;;;;;;;;5033229;28;20045;-56
2022/05/17 12:17:26;;;;;;;7.63;1.45;;;;;;;;;;4987883;28;20088;-53
2022/05/17 12:20:00;;;;;;;6.15;1.20;;;;;;;;;;5033409;28;20036;-56
2022/05/17 12:22:50;;;;;;;4.80;1.13;;;;;;;;;;5033499;28;20036;-57
2022/05/17 12:25:20;;;;;;;3.20;1.10;;;;;;;;;;5003496;28;20043;-55
2022/05/17 12:27:47;;;;;;;6.15;1.20;;;;;;;;;;5033836;28;20514;-55
2022/05/17 12:33:04;;;;;;;6.88;1.52;;;;;;;;;;5033108;28;20115;-55
2022/05/17 12:35:31;;;;;;;9.35;1.50;;;;;;;;;;5029547;28;20055;-55
2022/05/17 12:37:58;;;;;;;9.38;1.58;;;;;;;;;;5033362;28;20021;-55
2022/05/17 12:43:33;;;;;;;6.20;1.23;;;;;;;;;;5032904;28;20147;-56
2022/05/17 12:46:11;;;;;;;5.38;1.13;;;;;;;;;;5032243;28;20068;-54
2022/05/17 12:48:38;;;;;;;7.13;1.33;;;;;;;;;;5032234;28;20442;-55
2022/05/17 12:51:07;;;;;;;4.75;1.35;;;;;;;;;;5032398;28;20033;-53
2022/05/17 12:53:42;;;;;;;6.03;0.93;;;;;;;;;;5032464;28;20029;-55
2022/05/17 12:56:12;;;;;;;7.03;1.10;;;;;;;;;;5032208;28;20041;-56
2022/05/17 12:58:49;;;;;;;4.40;1.02;;;;;;;;;;5031406;28;20030;-52
2022/05/17 13:01:21;;;;;;;4.25;0.80;;;;;;;;;;5032642;28;20025;-54
2022/05/17 13:03:48;;;;;;;6.22;1.10;;;;;;;;;;5032128;28;20021;-49
2022/05/17 13:06:15;;;;;;;5.38;1.10;;;;;;;;;;5032281;28;20029;-50
2022/05/17 13:08:42;;;;;;;5.47;1.40;;;;;;;;;;5015985;28;20091;-54
2022/05/17 13:11:14;;;;;;;2.53;0.93;;;;;;;;;;4993887;28;20053;-56
2022/05/17 13:13:41;;;;;;;6.50;1.30;;;;;;;;;;5011970;28;20033;-56
2022/05/17 13:16:23;;;;;;;5.15;1.02;;;;;;;;;;5012032;28;20026;-54
2022/05/17 13:18:51;;;;;;;7.13;1.30;;;;;;;;;;5012206;28;20057;-54
2022/05/17 13:21:21;;;;;;;5.05;1.08;;;;;;;;;;5011546;28;20400;-56
2022/05/17 13:23:49;;;;;;;5.95;1.00;;;;;;;;;;5012070;28;20043;-52
2022/05/17 13:26:23;;;;;;;3.10;0.95;;;;;;;;;;5011929;28;20102;-55
2022/05/17 13:28:50;;;;;;;4.97;1.10;;;;;;;;;;5012279;28;20030;-52
2022/05/17 13:31:20;;;;;;;4.57;1.13;;;;;;;;;;5011446;28;20034;-58
2022/05/17 13:34:00;;;;;;;3.70;1.15;;;;;;;;;;5011590;28;20089;-58
2022/05/17 13:36:33;;;;;;;6.22;0.90;;;;;;;;;;5011794;28;20022;-58
2022/05/17 13:39:00;;;;;;;6.80;1.30;;;;;;;;;;5011269;28;20052;-58
2022/05/17 13:41:48;;;;;;;5.32;1.45;;;;;;;;;;5012389;28;20084;-58
2022/05/17 13:44:26;;;;;;;6.30;1.65;;;;;;;;;;5011279;28;20452;-57
2022/05/17 13:46:53;;;;;;;5.20;1.80;;;;;;;;;;5012178;28;20079;-57
2022/05/17 13:49:20;;;;;;;7.15;2.05;;;;;;;;;;5012031;28;20061;-57
2022/05/17 13:51:57;;;;;;;5.65;2.50;;;;;;;;;;5014131;28;20553;-54
2022/05/17 13:54:35;;;;;;;6.75;2.47;;;;;;;;;;5028975;28;20048;-54
2022/05/17 13:57:07;;;;;;;10.02;2.35;;;;;;;;;;5010380;28;20384;-59
2022/05/17 13:59:35;;;;;;;11.20;2.75;;;;;;;;;;5010919;28;20022;-58
2022/05/17 14:02:04;;;;;;;8.52;2.53;;;;;;;;;;5010238;28;20915;-57
2022/05/17 14:04:37;;;;;;;6.80;1.83;;;;;;;;;;5010625;28;20018;-55
2022/05/17 14:07:25;;;;;;;8.68;2.20;;;;;;;;;;5011124;28;20045;-54
2022/05/17 14:13:22;;;;;;;11.35;2.17;;;;;;;;;;5010674;28;20036;-53
2022/05/17 14:15:49;;;;;;;7.78;2.25;;;;;;;;;;5007409;28;20049;-52
2022/05/17 14:18:24;;;;;;;8.30;2.92;;;;;;;;;;5010231;28;20088;-51
2022/05/17 14:20:51;;;;;;;9.32;2.63;;;;;;;;;;5010842;28;20038;-51
2022/05/17 14:23:18;;;;;;;9.40;2.40;;;;;;;;;;5010252;28;20034;-53
2022/05/17 14:25:45;;;;;;;9.48;2.75;;;;;;;;;;5010603;28;20052;-53
2022/05/17 14:28:12;;;;;;;10.43;2.65;;;;;;;;;;5026372;28;20028;-50
2022/05/17 14:30:39;;;;;;;11.70;2.63;;;;;;;;;;5030849;28;20491;-58
2022/05/17 14:33:08;;;;;;;5.35;2.03;;;;;;;;;;5031822;28;20041;-57
2022/05/17 14:35:36;;;;;;;10.35;2.78;;;;;;;;;;5034714;28;20368;-57
2022/05/17 14:38:04;;;;;;;8.63;2.03;;;;;;;;;;5032627;28;20061;-58
2022/05/17 14:40:31;;;;;;;8.00;2.03;;;;;;;;;;5033458;28;20103;-55
2022/05/17 14:42:58;;;;;;;9.68;2.03;;;;;;;;;;5034085;28;20518;-58
2022/05/17 14:45:25;;;;;;;7.55;2.55;;;;;;;;;;5034156;28;20022;-58
2022/05/17 14:47:52;;;;;;;11.45;2.72;;;;;;;;;;5033534;28;20040;-51
2022/05/17 14:50:20;;;;;;;9.05;2.30;;;;;;;;;;5034080;28;20041;-56
2022/05/17 14:52:48;;;;;;;12.15;2.30;;;;;;;;;;5034215;28;20141;-57
2022/05/17 14:55:16;;;;;;;8.88;2.55;;;;;;;;;;5033337;28;20034;-55
2022/05/17 14:57:43;;;;;;;7.07;2.53;;;;;;;;;;5034068;28;20497;-55
2022/05/17 15:00:13;;;;;;;9.13;2.38;;;;;;;;;;5033256;28;20061;-56
2022/05/17 15:02:42;;;;;;;6.10;2.03;;;;;;;;;;5033802;28;20068;-56
2022/05/17 15:05:09;;;;;;;8.18;1.90;;;;;;;;;;5033466;28;20108;-56
2022/05/17 15:07:37;;;;;;;3.88;1.60;;;;;;;;;;5034333;28;20026;-53
2022/05/17 15:10:09;;;;;;;4.47;2.00;;;;;;;;;;5032153;28;20461;-57
2022/05/17 15:12:36;;;;;;;10.73;2.03;;;;;;;;;;5032934;28;20028;-56
2022/05/17 15:15:04;;;;;;;7.45;2.10;;;;;;;;;;5034078;28;20256;-48
2022/05/17 15:17:32;;;;;;;10.10;2.10;;;;;;;;;;5033234;28;20475;-52
2022/05/17 15:20:02;;;;;;;5.40;1.85;;;;;;;;;;5033192;28;20033;-56
2022/05/17 15:22:32;;;;;;;7.82;2.00;;;;;;;;;;5032667;28;20022;-55
2022/05/17 15:24:59;;;;;;;7.95;1.98;;;;;;;;;;5032863;28;20675;-53